EKAH

Aarhus Airport

Aarhus, Denmark
TAF EKAH 170515Z 1706/1806 14008KT 9999 BKN015 TEMPO 1706/1711 BKN012 TEMPO 1716/1719 4000 BR TEMPO 1719/1806 BKN012
Issued Valid From Valid To
Nov-17 @ 05:15 UTC
(4 hours ago)
Nov-17 @ 06:00 UTC
(3 hours ago)
Nov-18 @ 06:00 UTC
(in 21 hours)
Nov-17 @ 06:00 to Nov-18 @ 06:00
TAF EKAH 170515Z 1706/1806 14008KT 9999 BKN015
Wind Visibility Clouds
140° at 8 knots 10,000+ meters
  • Broken at 1,500' AGL
Temporary Nov-17 @ 06:00 to Nov-17 @ 11:00
TEMPO 1706/1711 BKN012
Clouds
  • Broken at 1,200' AGL
Temporary Nov-17 @ 16:00 to Nov-17 @ 19:00
TEMPO 1716/1719 4000 BR
Visibility Conditions
4,007 meters
  • Mist
Temporary Nov-17 @ 19:00 to Nov-18 @ 06:00
TEMPO 1719/1806 BKN012
Clouds
  • Broken at 1,200' AGL
TAF EKAH 170515Z 1706/1806 14008KT 9999 BKN015 TEMPO 1706/1711 BKN012 TEMPO 1716/1719 4000 BR TEMPO 1719/1806 BKN012
Issued Nov-17 @ 05:15 UTC
(4 hours ago)
Valid From Nov-17 @ 06:00 UTC
(3 hours ago)
Valid To Nov-18 @ 06:00 UTC
(in 21 hours)
Nov-17 @ 06:00 - Nov-18 @ 06:00
Wind Visibility
140° at 8 knots 10,000+ meters
Clouds
  • Broken at 1,500' AGL
Temporary Nov-17 @ 06:00 - Nov-17 @ 11:00
Clouds
  • Broken at 1,200' AGL
Temporary Nov-17 @ 16:00 - Nov-17 @ 19:00
Conditions
  • Mist
Temporary Nov-17 @ 19:00 - Nov-18 @ 06:00
Clouds
  • Broken at 1,200' AGL